EZY246Y EGKK-EGPH
Flight info
| Callsign | EZY246Y |
|---|---|
| Flight time | 1h 0m |
| Altitude | 34000 |
| Route | LAM L10 BPK UN601 RIBEL DCT INPIP |
| Aircraft | A319/M-SDE3FGHIRWY/LB1 |
Departure
| Time | 2026-04-25 20:00 |
|---|---|
| Airport | London Gatwick Airport (EGKK) |
Arrival
| Time | 2026-04-25 21:01 |
|---|---|
| Airport | Edinburgh Airport (EGPH) |
| Time | Latitude | Longitude | Altitude | Speed | Heading |
|---|---|---|---|---|---|
| 2026-04-25 19:16 | 51.15856 | -0.17500 | 209 ft | 0 kts | 347° |
| 2026-04-25 19:39 | 51.15855 | -0.17499 | 204 ft | 1 kts | 347° |
| 2026-04-25 19:39 | 51.15831 | -0.17491 | 214 ft | 4 kts | 347° |
| 2026-04-25 19:39 | 51.15805 | -0.17482 | 210 ft | 3 kts | 347° |
| 2026-04-25 19:39 | 51.15784 | -0.17473 | 216 ft | 4 kts | 331° |
| 2026-04-25 19:40 | 51.15770 | -0.17449 | 214 ft | 4 kts | 264° |
| 2026-04-25 19:40 | 51.15774 | -0.17415 | 209 ft | 1 kts | 257° |
| 2026-04-25 19:45 | 51.15774 | -0.17417 | 210 ft | 1 kts | 257° |
| 2026-04-25 19:45 | 51.15768 | -0.17455 | 216 ft | 6 kts | 258° |
| 2026-04-25 19:45 | 51.15757 | -0.17542 | 205 ft | 10 kts | 257° |
| 2026-04-25 19:46 | 51.15738 | -0.17679 | 204 ft | 15 kts | 257° |
| 2026-04-25 19:46 | 51.15716 | -0.17842 | 209 ft | 15 kts | 257° |
| 2026-04-25 19:46 | 51.15692 | -0.18007 | 204 ft | 15 kts | 258° |
| 2026-04-25 19:46 | 51.15670 | -0.18172 | 207 ft | 16 kts | 257° |
| 2026-04-25 19:47 | 51.15646 | -0.18344 | 206 ft | 16 kts | 257° |
| 2026-04-25 19:47 | 51.15622 | -0.18521 | 205 ft | 17 kts | 257° |
| 2026-04-25 19:47 | 51.15598 | -0.18692 | 204 ft | 14 kts | 257° |
| 2026-04-25 19:47 | 51.15555 | -0.18823 | 208 ft | 14 kts | 198° |
| 2026-04-25 19:48 | 51.15460 | -0.18796 | 209 ft | 14 kts | 167° |
| 2026-04-25 19:48 | 51.15360 | -0.18762 | 204 ft | 15 kts | 167° |
| 2026-04-25 19:48 | 51.15256 | -0.18725 | 208 ft | 16 kts | 167° |
| 2026-04-25 19:48 | 51.15157 | -0.18700 | 203 ft | 13 kts | 189° |
| 2026-04-25 19:49 | 51.15118 | -0.18822 | 203 ft | 13 kts | 258° |
| 2026-04-25 19:49 | 51.15105 | -0.18916 | 204 ft | 13 kts | 258° |
| 2026-04-25 19:49 | 51.15079 | -0.19104 | 204 ft | 13 kts | 258° |
| 2026-04-25 19:49 | 51.15059 | -0.19249 | 204 ft | 15 kts | 257° |
| 2026-04-25 19:50 | 51.15014 | -0.19576 | 215 ft | 16 kts | 257° |
| 2026-04-25 19:50 | 51.14991 | -0.19748 | 204 ft | 16 kts | 257° |
| 2026-04-25 19:50 | 51.14966 | -0.19927 | 208 ft | 17 kts | 257° |
| 2026-04-25 19:51 | 51.14939 | -0.20117 | 210 ft | 18 kts | 257° |
| 2026-04-25 19:51 | 51.14912 | -0.20313 | 213 ft | 17 kts | 257° |
| 2026-04-25 19:51 | 51.14893 | -0.20451 | 208 ft | 7 kts | 257° |
| 2026-04-25 19:51 | 51.14882 | -0.20532 | 209 ft | 10 kts | 258° |
| 2026-04-25 19:52 | 51.14867 | -0.20645 | 209 ft | 11 kts | 257° |
| 2026-04-25 19:52 | 51.14849 | -0.20772 | 203 ft | 13 kts | 258° |
| 2026-04-25 19:52 | 51.14830 | -0.20910 | 206 ft | 13 kts | 257° |
| 2026-04-25 19:52 | 51.14811 | -0.21050 | 212 ft | 13 kts | 258° |
| 2026-04-25 19:53 | 51.14783 | -0.21189 | 209 ft | 14 kts | 251° |
| 2026-04-25 19:53 | 51.14762 | -0.21341 | 204 ft | 14 kts | 257° |
| 2026-04-25 19:53 | 51.14728 | -0.21401 | 204 ft | 0 kts | 200° |
| 2026-04-25 19:54 | 51.14714 | -0.21403 | 208 ft | 4 kts | 180° |
| 2026-04-25 19:54 | 51.14672 | -0.21374 | 206 ft | 9 kts | 137° |
| 2026-04-25 19:54 | 51.14638 | -0.21335 | 207 ft | 9 kts | 157° |
| 2026-04-25 19:55 | 51.14613 | -0.21325 | 204 ft | 0 kts | 168° |
| 2026-04-25 19:57 | 51.14578 | -0.21310 | 208 ft | 10 kts | 162° |
| 2026-04-25 19:57 | 51.14522 | -0.21206 | 203 ft | 14 kts | 105° |
| 2026-04-25 19:58 | 51.14528 | -0.21108 | 211 ft | 0 kts | 78° |
| 2026-04-25 20:00 | 51.14540 | -0.21022 | 190 ft | 36 kts | 78° |
| 2026-04-25 20:00 | 51.14601 | -0.20575 | 212 ft | 87 kts | 77° |
| 2026-04-25 20:00 | 51.14858 | -0.18708 | 227 ft | 165 kts | 77° |
| 2026-04-25 20:00 | 51.15103 | -0.16939 | 863 ft | 163 kts | 78° |
| 2026-04-25 20:01 | 51.15609 | -0.13225 | 1864 ft | 193 kts | 78° |
| 2026-04-25 20:01 | 51.15913 | -0.11006 | 2235 ft | 218 kts | 77° |
| 2026-04-25 20:01 | 51.16254 | -0.08520 | 2740 ft | 242 kts | 77° |
| 2026-04-25 20:02 | 51.16930 | -0.05988 | 3443 ft | 256 kts | 53° |
| 2026-04-25 20:02 | 51.18028 | -0.03741 | 4446 ft | 258 kts | 51° |
| 2026-04-25 20:02 | 51.19137 | -0.01472 | 5454 ft | 261 kts | 51° |
| 2026-04-25 20:02 | 51.20257 | 0.00840 | 6386 ft | 267 kts | 52° |
| 2026-04-25 20:03 | 51.21402 | 0.03214 | 7271 ft | 272 kts | 52° |
| 2026-04-25 20:03 | 51.22565 | 0.05632 | 8162 ft | 277 kts | 52° |
| 2026-04-25 20:03 | 51.23747 | 0.08092 | 9050 ft | 282 kts | 51° |
| 2026-04-25 20:03 | 51.24846 | 0.10718 | 9915 ft | 289 kts | 63° |
| 2026-04-25 20:04 | 51.25818 | 0.13564 | 10540 ft | 301 kts | 51° |
| 2026-04-25 20:04 | 51.27455 | 0.15807 | 10838 ft | 322 kts | 26° |
| 2026-04-25 20:04 | 51.29624 | 0.16803 | 11386 ft | 331 kts | 2° |
| 2026-04-25 20:04 | 51.31905 | 0.16318 | 12144 ft | 334 kts | 339° |
| 2026-04-25 20:05 | 51.33904 | 0.14447 | 12891 ft | 337 kts | 318° |
| 2026-04-25 20:05 | 51.35540 | 0.11745 | 13166 ft | 338 kts | 311° |
| 2026-04-25 20:05 | 51.37104 | 0.08937 | 13330 ft | 340 kts | 311° |
| 2026-04-25 20:05 | 51.38844 | 0.06362 | 14146 ft | 343 kts | 326° |
| 2026-04-25 20:06 | 51.40952 | 0.04669 | 14865 ft | 345 kts | 335° |
| 2026-04-25 20:06 | 51.43191 | 0.03113 | 15597 ft | 348 kts | 336° |
| 2026-04-25 20:06 | 51.45399 | 0.01598 | 16280 ft | 351 kts | 336° |
| 2026-04-25 20:06 | 51.47687 | 0.00031 | 16977 ft | 355 kts | 336° |
| 2026-04-25 20:07 | 51.49968 | -0.01539 | 17636 ft | 359 kts | 335° |
| 2026-04-25 20:07 | 51.52272 | -0.03138 | 18332 ft | 362 kts | 335° |
| 2026-04-25 20:07 | 51.54565 | -0.04734 | 18939 ft | 365 kts | 335° |
| 2026-04-25 20:07 | 51.56910 | -0.06366 | 19553 ft | 368 kts | 335° |
| 2026-04-25 20:08 | 51.59264 | -0.08003 | 20179 ft | 371 kts | 335° |
| 2026-04-25 20:08 | 51.61642 | -0.09659 | 20802 ft | 373 kts | 335° |
| 2026-04-25 20:08 | 51.64029 | -0.11323 | 21166 ft | 375 kts | 335° |
| 2026-04-25 20:08 | 51.66425 | -0.13001 | 21259 ft | 374 kts | 335° |
| 2026-04-25 20:09 | 51.68809 | -0.14679 | 21274 ft | 374 kts | 335° |
| 2026-04-25 20:09 | 51.71194 | -0.16353 | 21273 ft | 374 kts | 335° |
| 2026-04-25 20:09 | 51.73592 | -0.18034 | 21571 ft | 377 kts | 335° |
| 2026-04-25 20:09 | 51.76001 | -0.19725 | 22224 ft | 379 kts | 335° |
| 2026-04-25 20:10 | 51.78429 | -0.21432 | 22845 ft | 381 kts | 335° |
| 2026-04-25 20:10 | 51.80868 | -0.23148 | 23440 ft | 383 kts | 335° |
| 2026-04-25 20:10 | 51.83319 | -0.24878 | 23931 ft | 386 kts | 335° |
| 2026-04-25 20:10 | 51.85789 | -0.26626 | 24389 ft | 389 kts | 334° |
| 2026-04-25 20:11 | 51.88275 | -0.28385 | 24845 ft | 391 kts | 335° |
| 2026-04-25 20:11 | 51.90778 | -0.30151 | 25299 ft | 393 kts | 335° |
| 2026-04-25 20:11 | 51.93292 | -0.31926 | 25737 ft | 396 kts | 334° |
| 2026-04-25 20:11 | 51.95823 | -0.33717 | 26174 ft | 398 kts | 334° |
| 2026-04-25 20:12 | 51.98331 | -0.35495 | 26606 ft | 400 kts | 334° |
| 2026-04-25 20:12 | 52.00885 | -0.37311 | 27046 ft | 402 kts | 334° |
| 2026-04-25 20:12 | 52.03453 | -0.39142 | 27470 ft | 404 kts | 334° |
| 2026-04-25 20:12 | 52.04331 | -0.39769 | 27611 ft | 405 kts | 334° |
| 2026-04-25 20:13 | 52.08627 | -0.42918 | 28284 ft | 410 kts | 330° |
| 2026-04-25 20:13 | 52.11090 | -0.45262 | 28694 ft | 412 kts | 327° |
| 2026-04-25 20:13 | 52.13559 | -0.47662 | 29091 ft | 414 kts | 327° |
| 2026-04-25 20:13 | 52.16038 | -0.50068 | 29485 ft | 416 kts | 327° |
| 2026-04-25 20:14 | 52.18538 | -0.52486 | 29877 ft | 419 kts | 327° |
| 2026-04-25 20:14 | 52.21046 | -0.54914 | 30247 ft | 421 kts | 327° |
| 2026-04-25 20:14 | 52.23573 | -0.57363 | 30571 ft | 423 kts | 327° |
| 2026-04-25 20:14 | 52.26112 | -0.59829 | 30885 ft | 425 kts | 327° |
| 2026-04-25 20:15 | 52.28658 | -0.62308 | 31198 ft | 428 kts | 327° |
| 2026-04-25 20:15 | 52.31228 | -0.64819 | 31403 ft | 433 kts | 327° |
| 2026-04-25 20:15 | 52.33818 | -0.67357 | 31634 ft | 436 kts | 327° |
| 2026-04-25 20:15 | 52.36430 | -0.69916 | 31956 ft | 438 kts | 327° |
| 2026-04-25 20:16 | 52.39039 | -0.72475 | 32364 ft | 437 kts | 327° |
| 2026-04-25 20:16 | 52.41646 | -0.75033 | 32772 ft | 436 kts | 327° |
| 2026-04-25 20:16 | 52.44246 | -0.77589 | 33170 ft | 436 kts | 327° |
| 2026-04-25 20:16 | 52.46847 | -0.80154 | 33566 ft | 436 kts | 327° |
| 2026-04-25 20:17 | 52.49444 | -0.82717 | 33968 ft | 435 kts | 327° |
| 2026-04-25 20:17 | 52.52006 | -0.85244 | 34212 ft | 435 kts | 327° |
| 2026-04-25 20:17 | 52.57136 | -0.90313 | 34246 ft | 428 kts | 327° |
| 2026-04-25 20:18 | 52.62223 | -0.95362 | 34228 ft | 426 kts | 327° |
| 2026-04-25 20:18 | 52.67326 | -1.00333 | 34218 ft | 426 kts | 329° |
| 2026-04-25 20:19 | 52.72478 | -1.05077 | 34222 ft | 422 kts | 329° |
| 2026-04-25 20:19 | 52.77612 | -1.09759 | 34253 ft | 421 kts | 329° |
| 2026-04-25 20:20 | 52.82729 | -1.14505 | 34230 ft | 422 kts | 329° |
| 2026-04-25 20:20 | 52.87846 | -1.19289 | 34228 ft | 423 kts | 329° |
| 2026-04-25 20:21 | 52.92980 | -1.24089 | 34226 ft | 424 kts | 329° |
| 2026-04-25 20:21 | 52.98118 | -1.28906 | 34229 ft | 424 kts | 329° |
| 2026-04-25 20:22 | 53.01554 | -1.32144 | 34238 ft | 425 kts | 329° |
| 2026-04-25 20:22 | 53.08407 | -1.38622 | 34232 ft | 427 kts | 329° |
| 2026-04-25 20:23 | 53.13589 | -1.43508 | 34241 ft | 428 kts | 329° |
| 2026-04-25 20:23 | 53.18771 | -1.48425 | 34248 ft | 429 kts | 329° |
| 2026-04-25 20:24 | 53.23956 | -1.53369 | 34251 ft | 429 kts | 329° |
| 2026-04-25 20:24 | 53.29113 | -1.58286 | 34277 ft | 429 kts | 328° |
| 2026-04-25 20:25 | 53.34294 | -1.63240 | 34289 ft | 429 kts | 328° |
| 2026-04-25 20:25 | 53.39466 | -1.68202 | 34282 ft | 428 kts | 328° |
| 2026-04-25 20:26 | 53.44632 | -1.73173 | 34282 ft | 428 kts | 328° |
| 2026-04-25 20:26 | 53.49785 | -1.78160 | 34277 ft | 428 kts | 328° |
| 2026-04-25 20:27 | 53.54941 | -1.83144 | 34285 ft | 428 kts | 328° |
| 2026-04-25 20:27 | 53.60098 | -1.88130 | 34271 ft | 427 kts | 328° |
| 2026-04-25 20:28 | 53.65253 | -1.93140 | 34271 ft | 427 kts | 328° |
| 2026-04-25 20:28 | 53.70398 | -1.98178 | 34270 ft | 427 kts | 328° |
| 2026-04-25 20:29 | 53.75537 | -2.03221 | 34259 ft | 428 kts | 328° |
| 2026-04-25 20:29 | 53.80700 | -2.08290 | 34254 ft | 429 kts | 328° |
| 2026-04-25 20:30 | 53.85868 | -2.13367 | 34258 ft | 429 kts | 328° |
| 2026-04-25 20:30 | 53.91024 | -2.18452 | 34268 ft | 428 kts | 327° |
| 2026-04-25 20:31 | 53.96168 | -2.23543 | 34274 ft | 428 kts | 328° |
| 2026-04-25 20:31 | 54.01329 | -2.28610 | 34258 ft | 429 kts | 331° |
| 2026-04-25 20:32 | 54.06849 | -2.32565 | 34247 ft | 432 kts | 336° |
| 2026-04-25 20:32 | 54.12421 | -2.36417 | 34251 ft | 432 kts | 336° |
| 2026-04-25 20:33 | 54.17057 | -2.39635 | 34249 ft | 433 kts | 336° |
| 2026-04-25 20:33 | 54.21700 | -2.42862 | 34251 ft | 433 kts | 336° |
| 2026-04-25 20:34 | 54.28232 | -2.47416 | 34250 ft | 434 kts | 336° |
| 2026-04-25 20:34 | 54.33840 | -2.51337 | 34254 ft | 436 kts | 336° |
| 2026-04-25 20:35 | 54.36655 | -2.53317 | 34029 ft | 437 kts | 336° |
| 2026-04-25 20:35 | 54.39468 | -2.55300 | 33754 ft | 437 kts | 336° |
| 2026-04-25 20:35 | 54.42281 | -2.57282 | 33471 ft | 437 kts | 336° |
| 2026-04-25 20:35 | 54.45101 | -2.59266 | 33206 ft | 437 kts | 336° |
| 2026-04-25 20:36 | 54.47915 | -2.61247 | 32944 ft | 437 kts | 336° |
| 2026-04-25 20:36 | 54.50730 | -2.63230 | 32681 ft | 438 kts | 336° |
| 2026-04-25 20:36 | 54.53547 | -2.65222 | 32424 ft | 437 kts | 336° |
| 2026-04-25 20:36 | 54.56351 | -2.67214 | 32163 ft | 435 kts | 335° |
| 2026-04-25 20:37 | 54.59141 | -2.69202 | 31898 ft | 432 kts | 335° |
| 2026-04-25 20:37 | 54.61898 | -2.71166 | 31375 ft | 427 kts | 335° |
| 2026-04-25 20:37 | 54.64605 | -2.73090 | 30843 ft | 424 kts | 335° |
| 2026-04-25 20:37 | 54.67319 | -2.75021 | 30287 ft | 420 kts | 335° |
| 2026-04-25 20:38 | 54.70005 | -2.76938 | 29699 ft | 416 kts | 335° |
| 2026-04-25 20:38 | 54.72661 | -2.78837 | 29190 ft | 411 kts | 335° |
| 2026-04-25 20:38 | 54.75290 | -2.80719 | 28655 ft | 406 kts | 335° |
| 2026-04-25 20:38 | 54.77887 | -2.82581 | 28128 ft | 402 kts | 335° |
| 2026-04-25 20:39 | 54.80453 | -2.84419 | 27634 ft | 398 kts | 335° |
| 2026-04-25 20:39 | 54.82999 | -2.86243 | 27149 ft | 394 kts | 335° |
| 2026-04-25 20:39 | 54.85517 | -2.88053 | 26666 ft | 390 kts | 335° |
| 2026-04-25 20:39 | 54.87214 | -2.89277 | 26386 ft | 389 kts | 335° |
| 2026-04-25 20:40 | 54.90525 | -2.91671 | 26146 ft | 388 kts | 335° |
| 2026-04-25 20:40 | 54.92970 | -2.93438 | 25969 ft | 372 kts | 335° |
| 2026-04-25 20:40 | 54.95319 | -2.95133 | 25545 ft | 360 kts | 335° |
| 2026-04-25 20:40 | 54.97606 | -2.96786 | 24957 ft | 354 kts | 334° |
| 2026-04-25 20:41 | 54.99865 | -2.98423 | 24319 ft | 349 kts | 334° |
| 2026-04-25 20:41 | 55.02095 | -3.00041 | 23660 ft | 345 kts | 334° |
| 2026-04-25 20:41 | 55.04305 | -3.01646 | 22933 ft | 342 kts | 334° |
| 2026-04-25 20:41 | 55.06483 | -3.03234 | 22230 ft | 338 kts | 334° |
| 2026-04-25 20:42 | 55.08647 | -3.04816 | 21547 ft | 335 kts | 334° |
| 2026-04-25 20:42 | 55.10784 | -3.06380 | 20876 ft | 332 kts | 334° |
| 2026-04-25 20:42 | 55.12906 | -3.07935 | 20395 ft | 329 kts | 335° |
| 2026-04-25 20:42 | 55.15032 | -3.09498 | 20254 ft | 331 kts | 335° |
| 2026-04-25 20:43 | 55.17126 | -3.11036 | 20274 ft | 332 kts | 334° |
| 2026-04-25 20:43 | 55.19244 | -3.12589 | 19990 ft | 329 kts | 335° |
| 2026-04-25 20:43 | 55.21352 | -3.14135 | 19594 ft | 327 kts | 335° |
| 2026-04-25 20:43 | 55.23449 | -3.15675 | 19222 ft | 326 kts | 335° |
| 2026-04-25 20:44 | 55.25533 | -3.17202 | 18719 ft | 323 kts | 335° |
| 2026-04-25 20:44 | 55.27605 | -3.18725 | 18036 ft | 322 kts | 335° |
| 2026-04-25 20:44 | 55.29742 | -3.19854 | 17371 ft | 322 kts | 348° |
| 2026-04-25 20:44 | 55.31970 | -3.20090 | 16745 ft | 322 kts | 2° |
| 2026-04-25 20:45 | 55.34199 | -3.19742 | 16158 ft | 320 kts | 4° |
| 2026-04-25 20:45 | 55.36376 | -3.19392 | 15810 ft | 310 kts | 4° |
| 2026-04-25 20:45 | 55.38507 | -3.19054 | 15335 ft | 306 kts | 4° |
| 2026-04-25 20:45 | 55.40618 | -3.18725 | 14830 ft | 303 kts | 4° |
| 2026-04-25 20:46 | 55.42710 | -3.18402 | 14327 ft | 301 kts | 4° |
| 2026-04-25 20:46 | 55.44788 | -3.18083 | 13825 ft | 299 kts | 4° |
| 2026-04-25 20:46 | 55.46856 | -3.17764 | 13267 ft | 297 kts | 4° |
| 2026-04-25 20:46 | 55.48906 | -3.17446 | 12745 ft | 294 kts | 4° |
| 2026-04-25 20:47 | 55.50936 | -3.17132 | 12209 ft | 292 kts | 3° |
| 2026-04-25 20:47 | 55.52949 | -3.16822 | 11680 ft | 289 kts | 3° |
| 2026-04-25 20:47 | 55.54951 | -3.16509 | 11145 ft | 287 kts | 3° |
| 2026-04-25 20:47 | 55.56932 | -3.16198 | 10628 ft | 285 kts | 4° |
| 2026-04-25 20:48 | 55.58896 | -3.15886 | 10122 ft | 282 kts | 4° |
| 2026-04-25 20:48 | 55.60767 | -3.15585 | 9948 ft | 266 kts | 3° |
| 2026-04-25 20:48 | 55.62577 | -3.15539 | 9535 ft | 256 kts | 346° |
| 2026-04-25 20:48 | 55.64140 | -3.16834 | 9026 ft | 246 kts | 315° |
| 2026-04-25 20:49 | 55.65146 | -3.19245 | 8626 ft | 244 kts | 297° |
| 2026-04-25 20:49 | 55.65929 | -3.21896 | 8270 ft | 243 kts | 295° |
| 2026-04-25 20:49 | 55.66685 | -3.24571 | 7907 ft | 242 kts | 295° |
| 2026-04-25 20:49 | 55.67433 | -3.27237 | 7561 ft | 241 kts | 294° |
| 2026-04-25 20:50 | 55.68180 | -3.29879 | 7311 ft | 238 kts | 295° |
| 2026-04-25 20:50 | 55.68925 | -3.32496 | 7283 ft | 238 kts | 295° |
| 2026-04-25 20:50 | 55.69631 | -3.35152 | 7276 ft | 238 kts | 285° |
| 2026-04-25 20:50 | 55.69936 | -3.38023 | 7280 ft | 237 kts | 275° |
| 2026-04-25 20:51 | 55.70129 | -3.40937 | 7280 ft | 239 kts | 275° |
| 2026-04-25 20:51 | 55.70309 | -3.43859 | 7277 ft | 239 kts | 275° |
| 2026-04-25 20:51 | 55.70487 | -3.46789 | 7279 ft | 239 kts | 274° |
| 2026-04-25 20:51 | 55.70662 | -3.49704 | 7112 ft | 237 kts | 275° |
| 2026-04-25 20:52 | 55.70835 | -3.52600 | 6785 ft | 235 kts | 275° |
| 2026-04-25 20:52 | 55.70950 | -3.54508 | 6571 ft | 234 kts | 274° |
| 2026-04-25 20:52 | 55.71175 | -3.58334 | 6095 ft | 233 kts | 275° |
| 2026-04-25 20:52 | 55.71334 | -3.61187 | 5766 ft | 231 kts | 274° |
| 2026-04-25 20:53 | 55.71496 | -3.64009 | 5436 ft | 229 kts | 274° |
| 2026-04-25 20:53 | 55.71673 | -3.66768 | 5122 ft | 227 kts | 280° |
| 2026-04-25 20:53 | 55.72342 | -3.69138 | 4789 ft | 229 kts | 311° |
| 2026-04-25 20:53 | 55.73636 | -3.70804 | 4392 ft | 232 kts | 327° |
| 2026-04-25 20:54 | 55.75055 | -3.72211 | 4036 ft | 233 kts | 329° |
| 2026-04-25 20:54 | 55.76441 | -3.73567 | 3982 ft | 220 kts | 329° |
| 2026-04-25 20:54 | 55.77737 | -3.74847 | 3984 ft | 206 kts | 329° |
| 2026-04-25 20:54 | 55.79026 | -3.75826 | 3954 ft | 202 kts | 352° |
| 2026-04-25 20:55 | 55.80411 | -3.75665 | 3975 ft | 200 kts | 13° |
| 2026-04-25 20:55 | 55.81690 | -3.74708 | 3990 ft | 199 kts | 33° |
| 2026-04-25 20:55 | 55.82716 | -3.73074 | 3991 ft | 197 kts | 53° |
| 2026-04-25 20:55 | 55.83456 | -3.71019 | 4004 ft | 198 kts | 60° |
| 2026-04-25 20:56 | 55.84176 | -3.68932 | 3975 ft | 199 kts | 60° |
| 2026-04-25 20:56 | 55.84898 | -3.66834 | 3796 ft | 198 kts | 60° |
| 2026-04-25 20:56 | 55.85613 | -3.64754 | 3563 ft | 197 kts | 60° |
| 2026-04-25 20:56 | 55.86327 | -3.62673 | 3299 ft | 197 kts | 60° |
| 2026-04-25 20:57 | 55.87039 | -3.60596 | 3071 ft | 194 kts | 60° |
| 2026-04-25 20:57 | 55.87742 | -3.58545 | 2776 ft | 193 kts | 61° |
| 2026-04-25 20:57 | 55.88435 | -3.56520 | 2507 ft | 190 kts | 61° |
| 2026-04-25 20:57 | 55.89109 | -3.54549 | 2251 ft | 181 kts | 62° |
| 2026-04-25 20:58 | 55.89742 | -3.52697 | 2016 ft | 170 kts | 62° |
| 2026-04-25 20:58 | 55.90336 | -3.50957 | 1792 ft | 158 kts | 61° |
| 2026-04-25 20:58 | 55.90895 | -3.49318 | 1575 ft | 152 kts | 61° |
| 2026-04-25 20:58 | 55.91414 | -3.47800 | 1369 ft | 133 kts | 62° |
| 2026-04-25 20:59 | 55.91875 | -3.46445 | 1189 ft | 125 kts | 60° |
| 2026-04-25 20:59 | 55.92311 | -3.45145 | 1016 ft | 121 kts | 61° |
| 2026-04-25 20:59 | 55.92753 | -3.43858 | 846 ft | 121 kts | 59° |
| 2026-04-25 20:59 | 55.93180 | -3.42588 | 702 ft | 119 kts | 60° |
| 2026-04-25 21:00 | 55.93610 | -3.41332 | 497 ft | 118 kts | 59° |
| 2026-04-25 21:00 | 55.93748 | -3.40924 | 433 ft | 119 kts | 59° |
| 2026-04-25 21:00 | 55.94872 | -3.37620 | 114 ft | 101 kts | 61° |
| 2026-04-25 21:01 | 55.95150 | -3.36800 | 114 ft | 52 kts | 58° |
| 2026-04-25 21:01 | 55.95258 | -3.36483 | 112 ft | 16 kts | 66° |
| 2026-04-25 21:01 | 55.95200 | -3.36362 | 115 ft | 12 kts | 152° |
| 2026-04-25 21:01 | 55.95177 | -3.36336 | 113 ft | 0 kts | 146° |
| 2026-04-25 21:02 | 55.95174 | -3.36332 | 114 ft | 2 kts | 147° |
| 2026-04-25 21:02 | 55.95145 | -3.36310 | 115 ft | 7 kts | 178° |
| 2026-04-25 21:02 | 55.95100 | -3.36378 | 115 ft | 11 kts | 232° |
| 2026-04-25 21:03 | 55.95023 | -3.36392 | 116 ft | 12 kts | 201° |
| 2026-04-25 21:03 | 55.94976 | -3.36510 | 115 ft | 11 kts | 239° |
| 2026-04-25 21:03 | 55.94936 | -3.36531 | 115 ft | 7 kts | 150° |
| 2026-04-25 21:03 | 55.94904 | -3.36495 | 114 ft | 1 kts | 148° |